createdAt,value
2017-11-27T00:00:25.212Z,90.61
2017-11-27T00:00:53.069Z,90.41
2017-11-27T00:01:21.143Z,90.8
2017-11-27T00:01:49.198Z,90.32
2017-11-27T00:02:31.933Z,90.8
2017-11-27T00:02:59.996Z,90.22
2017-11-27T00:03:42.758Z,90.32
2017-11-27T00:04:10.806Z,90.41
2017-11-27T00:04:39.275Z,90.9
2017-11-27T00:05:07.476Z,90.7
2017-11-27T00:05:35.676Z,90.7
2017-11-27T00:06:03.736Z,90.41
2017-11-27T00:06:31.894Z,90.22
2017-11-27T00:07:00.028Z,90.22
2017-11-27T00:07:28.239Z,90.03
2017-11-27T00:07:56.398Z,90.22
2017-11-27T00:08:24.552Z,90.03
2017-11-27T00:09:07.097Z,90.03
2017-11-27T00:09:35.152Z,90.22
2017-11-27T00:10:03.716Z,90.32
2017-11-27T00:10:31.786Z,90.32
2017-11-27T00:10:59.732Z,90.51
2017-11-27T00:11:27.683Z,89.74
2017-11-27T00:11:55.747Z,90.32
2017-11-27T00:12:23.893Z,90.51
2017-11-27T00:12:52.154Z,89.59
2017-11-27T00:13:20.471Z,90.46
2017-11-27T00:13:48.643Z,90.07
2017-11-27T00:14:16.770Z,90.41
2017-11-27T00:14:44.733Z,90.12
2017-11-27T00:15:13.097Z,90.32
2017-11-27T00:15:41.451Z,90.26
2017-11-27T00:16:09.500Z,90.32
2017-11-27T00:16:37.538Z,90.51
2017-11-27T00:17:05.606Z,90.94
2017-11-27T00:17:33.717Z,90.41
2017-11-27T00:18:01.867Z,90.46
2017-11-27T00:18:29.845Z,90.22
2017-11-27T00:18:57.880Z,90.36
2017-11-27T00:19:26.017Z,90.36
2017-11-27T00:19:54.569Z,90.17
2017-11-27T00:20:22.320Z,90.84
2017-11-27T00:20:50.473Z,90.9
2017-11-27T00:21:18.813Z,90.26
2017-11-27T00:21:46.839Z,90.56
2017-11-27T00:22:14.899Z,90.61
2017-11-27T00:22:43.063Z,90.46
2017-11-27T00:23:10.999Z,90.56
2017-11-27T00:23:39.141Z,90.41
2017-11-27T00:24:07.312Z,90.75
2017-11-27T00:24:35.454Z,91.04
2017-11-27T00:25:03.518Z,91.04
2017-11-27T00:25:31.681Z,90.7
2017-11-27T00:25:59.668Z,90.94
2017-11-27T00:26:27.996Z,90.65
2017-11-27T00:26:56.016Z,90.75
2017-11-27T00:27:24.094Z,90.56
2017-11-27T00:27:52.256Z,90.65
2017-11-27T00:28:20.419Z,90.75
2017-11-27T00:28:48.481Z,90.65
2017-11-27T00:29:16.541Z,91.24
2017-11-27T00:29:44.694Z,90.84
2017-11-27T00:30:13.057Z,91.28
2017-11-27T00:30:41.045Z,91.33
2017-11-27T00:31:09.170Z,91.42
2017-11-27T00:31:37.213Z,91.28
2017-11-27T00:32:05.045Z,91.28
2017-11-27T00:32:33.225Z,91.52
2017-11-27T00:33:01.476Z,91.72
2017-11-27T00:33:29.527Z,92
2017-11-27T00:33:57.779Z,91.62
2017-11-27T00:34:25.882Z,91.48
2017-11-27T00:34:54.031Z,91.48
2017-11-27T00:35:21.962Z,91.28
2017-11-27T00:35:50.024Z,91.77
2017-11-27T00:36:18.306Z,92.2
2017-11-27T00:36:46.431Z,91.67
2017-11-27T00:37:14.582Z,91.67
2017-11-27T00:37:42.659Z,92.06
2017-11-27T00:38:10.707Z,92.06
2017-11-27T00:38:38.814Z,92.16
2017-11-27T00:39:06.896Z,92.16
2017-11-27T00:39:35.071Z,91.86
2017-11-27T00:40:03.228Z,91.67
2017-11-27T00:40:31.297Z,92.16
2017-11-27T00:40:59.484Z,92.54
2017-11-27T00:41:27.646Z,92.54
2017-11-27T00:41:55.699Z,92.06
2017-11-27T00:42:23.732Z,92.44
2017-11-27T00:42:51.876Z,92.35
2017-11-27T00:43:19.927Z,92.25
2017-11-27T00:43:48.019Z,92.25
2017-11-27T00:44:16.408Z,92.54
2017-11-27T00:44:44.524Z,92.16
2017-11-27T00:45:12.563Z,92.16
2017-11-27T00:45:41.042Z,92.54
2017-11-27T00:46:09.085Z,91.86
2017-11-27T00:46:37.319Z,92.54
2017-11-27T00:47:05.472Z,92.16
2017-11-27T00:47:33.617Z,92.25
2017-11-27T00:48:02.326Z,91.67
2017-11-27T00:48:31.371Z,91.96
2017-11-27T00:48:59.332Z,92.06
2017-11-27T00:49:27.507Z,91.67
2017-11-27T00:49:55.474Z,91.96
2017-11-27T00:50:23.549Z,91.96
2017-11-27T00:50:51.601Z,91.48
2017-11-27T00:51:19.773Z,91.86
2017-11-27T00:51:47.828Z,91.48
2017-11-27T00:52:15.874Z,92.35
2017-11-27T00:52:44.232Z,91.48
2017-11-27T00:53:12.370Z,91.77
2017-11-27T00:53:40.541Z,91.77
2017-11-27T00:54:08.705Z,91.48
2017-11-27T00:54:36.920Z,92.25
2017-11-27T00:55:05.174Z,91.86
2017-11-27T00:55:33.303Z,91.96
2017-11-27T00:56:01.366Z,91.86
2017-11-27T00:56:29.431Z,91.58
2017-11-27T00:56:58.252Z,92.06
2017-11-27T00:57:26.428Z,91.96
2017-11-27T00:57:54.585Z,92.06
2017-11-27T00:58:22.738Z,91.96
2017-11-27T00:58:50.789Z,91.96
2017-11-27T00:59:18.856Z,91.96
2017-11-27T00:59:46.884Z,91.28
2017-11-27T01:00:15.868Z,91.38
2017-11-27T01:00:44.027Z,91.42
2017-11-27T01:01:12.088Z,91.38
2017-11-27T01:01:40.234Z,91.28
2017-11-27T01:02:08.400Z,91.24
2017-11-27T01:02:36.346Z,91.42
2017-11-27T01:03:04.476Z,91.48
2017-11-27T01:03:32.698Z,91.52
2017-11-27T01:04:01.424Z,91.38
2017-11-27T01:04:29.540Z,91.58
2017-11-27T01:04:57.705Z,91.62
2017-11-27T01:05:25.777Z,91.58
2017-11-27T01:05:54.029Z,91.58
2017-11-27T01:06:22.505Z,91.58
2017-11-27T01:06:50.678Z,91.42
2017-11-27T01:07:18.858Z,91.19
2017-11-27T01:07:46.782Z,91.33
2017-11-27T01:08:14.940Z,91.42
2017-11-27T01:08:43.001Z,91.62
2017-11-27T01:09:11.029Z,91.42
2017-11-27T01:09:39.081Z,92
2017-11-27T01:10:07.152Z,91.82
2017-11-27T01:10:35.288Z,91.33
2017-11-27T01:11:03.400Z,91.77
2017-11-27T01:11:31.542Z,91.48
2017-11-27T01:11:59.709Z,92.25
2017-11-27T01:12:27.690Z,92.2
2017-11-27T01:12:55.984Z,92
2017-11-27T01:13:24.119Z,91.96
2017-11-27T01:13:52.176Z,91.58
2017-11-27T01:14:20.324Z,92.16
2017-11-27T01:14:48.826Z,92.06
2017-11-27T01:15:16.775Z,92.06
2017-11-27T01:15:44.721Z,92.58
2017-11-27T01:16:13.057Z,92.44
2017-11-27T01:16:42.276Z,92.3
2017-11-27T01:17:10.348Z,92.1
2017-11-27T01:17:38.834Z,92.2
2017-11-27T01:18:06.968Z,92.4
2017-11-27T01:18:34.926Z,91.91
2017-11-27T01:19:03.186Z,92.3
2017-11-27T01:19:31.274Z,92.2
2017-11-27T01:19:59.404Z,91.77
2017-11-27T01:20:27.591Z,92.1
2017-11-27T01:20:55.750Z,92.49
2017-11-27T01:21:24.013Z,92.4
2017-11-27T01:21:52.192Z,92.68
2017-11-27T01:22:20.505Z,91.91
2017-11-27T01:22:48.438Z,92.1
2017-11-27T01:23:16.485Z,92.3
2017-11-27T01:23:44.443Z,92.2
2017-11-27T01:24:12.611Z,92.4
2017-11-27T01:24:40.770Z,92.25
2017-11-27T01:25:08.790Z,92.35
2017-11-27T01:25:36.823Z,92.06
2017-11-27T01:26:04.872Z,92.83
2017-11-27T01:26:32.924Z,92.88
2017-11-27T01:27:00.961Z,92.68
2017-11-27T01:27:28.987Z,92.49
2017-11-27T01:27:57.034Z,92.64
2017-11-27T01:28:25.193Z,93.41
2017-11-27T01:28:53.355Z,93.22
2017-11-27T01:29:21.607Z,93.32
2017-11-27T01:29:49.661Z,92.64
2017-11-27T01:30:18.002Z,92.93
2017-11-27T01:30:45.768Z,92.64
2017-11-27T01:31:13.943Z,93.22
2017-11-27T01:31:42.099Z,93.41
2017-11-27T01:32:10.281Z,93.02
2017-11-27T01:32:38.861Z,93.02
2017-11-27T01:33:06.890Z,93.41
2017-11-27T01:33:35.679Z,93.51
2017-11-27T01:34:03.754Z,93.51
2017-11-27T01:34:31.774Z,93.51
2017-11-27T01:34:59.925Z,93.41
2017-11-27T01:35:28.051Z,93.8
2017-11-27T01:35:56.093Z,92.93
2017-11-27T01:36:24.253Z,92.83
2017-11-27T01:36:52.289Z,93.12
2017-11-27T01:37:20.415Z,93.51
2017-11-27T01:37:48.499Z,93.22
2017-11-27T01:38:16.571Z,93.41
2017-11-27T01:38:44.713Z,93.12
2017-11-27T01:39:12.900Z,93.51
2017-11-27T01:39:41.067Z,93.6
2017-11-27T01:40:09.127Z,93.6
2017-11-27T01:40:37.192Z,93.51
2017-11-27T01:41:05.207Z,93.8
2017-11-27T01:41:33.350Z,93.02
2017-11-27T01:42:01.396Z,93.02
2017-11-27T01:42:29.663Z,93.9
2017-11-27T01:42:57.827Z,93.41
2017-11-27T01:43:25.887Z,93.51
2017-11-27T01:43:53.917Z,93.51
2017-11-27T01:44:22.056Z,93.8
2017-11-27T01:44:50.214Z,93.6
2017-11-27T01:45:18.354Z,93.7
2017-11-27T01:45:46.505Z,93.51
2017-11-27T01:46:14.632Z,93.51
2017-11-27T01:46:42.683Z,93.6
2017-11-27T01:47:10.728Z,93.55
2017-11-27T01:47:38.892Z,93.6
2017-11-27T01:48:07.456Z,93.51
2017-11-27T01:48:35.503Z,93.7
2017-11-27T01:49:04.019Z,93.41
2017-11-27T01:49:32.083Z,93.51
2017-11-27T01:50:00.136Z,93.51
2017-11-27T01:50:28.186Z,93.55
2017-11-27T01:50:56.358Z,93.46
2017-11-27T01:51:24.537Z,93.55
2017-11-27T01:51:52.630Z,93.85
2017-11-27T01:52:20.599Z,93.07
2017-11-27T01:52:48.621Z,93.36
2017-11-27T01:53:16.803Z,92.58
2017-11-27T01:53:44.969Z,92.68
2017-11-27T01:54:13.126Z,92.97
2017-11-27T01:54:41.264Z,92.97
2017-11-27T01:55:09.337Z,92.88
2017-11-27T01:55:37.408Z,92.4
2017-11-27T01:56:05.438Z,92.49
2017-11-27T01:56:33.802Z,92.68
2017-11-27T01:57:01.932Z,92.68
2017-11-27T01:57:29.903Z,92.58
2017-11-27T01:57:57.964Z,92.2
2017-11-27T01:58:26.107Z,92.49
2017-11-27T01:58:54.259Z,92.4
2017-11-27T01:59:22.285Z,92.49
2017-11-27T01:59:50.223Z,92.2
2017-11-27T02:00:18.173Z,92.68
2017-11-27T02:00:46.943Z,92.2
2017-11-27T02:01:15.088Z,92.2
2017-11-27T02:01:43.226Z,92.3
2017-11-27T02:02:11.150Z,92.1
2017-11-27T02:02:39.309Z,92.2
2017-11-27T02:03:07.442Z,92.2
2017-11-27T02:03:35.499Z,91.52
2017-11-27T02:04:03.752Z,91.91
2017-11-27T02:04:31.919Z,92.2
2017-11-27T02:04:59.969Z,92.2
2017-11-27T02:05:28.025Z,92.1
2017-11-27T02:05:56.063Z,92.3
2017-11-27T02:06:24.204Z,92.1
2017-11-27T02:06:52.248Z,92.3
2017-11-27T02:07:20.315Z,92.4
2017-11-27T02:07:48.264Z,92.4
2017-11-27T02:08:16.153Z,92.2
2017-11-27T02:08:44.199Z,92.58
2017-11-27T02:09:12.286Z,92.49
2017-11-27T02:09:40.410Z,92.4
2017-11-27T02:10:08.459Z,92.97
2017-11-27T02:10:36.626Z,92.88
2017-11-27T02:11:04.785Z,92.88
2017-11-27T02:11:32.845Z,92.68
2017-11-27T02:12:01.101Z,92.58
2017-11-27T02:12:29.271Z,93.26
2017-11-27T02:12:57.213Z,93.17
2017-11-27T02:13:25.271Z,93.07
2017-11-27T02:13:53.309Z,92.88
2017-11-27T02:14:21.508Z,93.85
2017-11-27T02:14:49.563Z,93.65
2017-11-27T02:15:17.750Z,93.75
2017-11-27T02:15:45.787Z,94.43
2017-11-27T02:16:13.969Z,93.94
2017-11-27T02:16:42.121Z,94.13
2017-11-27T02:17:10.295Z,94.23
2017-11-27T02:17:38.224Z,94.52
2017-11-27T02:18:06.402Z,94.33
2017-11-27T02:18:34.358Z,94.23
2017-11-27T02:19:02.762Z,94.71
2017-11-27T02:19:30.793Z,95.01
2017-11-27T02:19:58.974Z,94.71
2017-11-27T02:20:27.032Z,94.81
2017-11-27T02:20:55.098Z,95.2
2017-11-27T02:21:23.309Z,94.62
2017-11-27T02:21:51.456Z,95.1
2017-11-27T02:22:19.618Z,94.62
2017-11-27T02:22:47.597Z,93.94
2017-11-27T02:23:16.138Z,94.43
2017-11-27T02:23:44.180Z,94.33
2017-11-27T02:24:12.442Z,94.67
2017-11-27T02:24:40.581Z,95.01
2017-11-27T02:25:08.739Z,94.67
2017-11-27T02:25:36.885Z,95.34
2017-11-27T02:26:04.960Z,95.44
2017-11-27T02:26:32.980Z,95.15
2017-11-27T02:27:01.065Z,95.06
2017-11-27T02:27:29.003Z,96.02
2017-11-27T02:27:56.969Z,95.06
2017-11-27T02:28:25.114Z,95.06
2017-11-27T02:28:53.240Z,95.25
2017-11-27T02:29:21.379Z,95.15
2017-11-27T02:29:49.517Z,95.25
2017-11-27T02:30:17.582Z,94.57
2017-11-27T02:30:45.727Z,94.96
2017-11-27T02:31:13.853Z,95.15
2017-11-27T02:31:41.897Z,95.06
2017-11-27T02:32:10.069Z,95.34
2017-11-27T02:32:38.105Z,95.44
2017-11-27T02:33:06.263Z,95.68
2017-11-27T02:33:34.465Z,95.78
2017-11-27T02:34:02.321Z,95.54
2017-11-27T02:34:30.349Z,95.83
2017-11-27T02:34:58.798Z,96.41
2017-11-27T02:35:26.847Z,96.17
2017-11-27T02:35:54.913Z,96.17
2017-11-27T02:36:23.098Z,96.22
2017-11-27T02:36:51.240Z,96.02
2017-11-27T02:37:19.389Z,95.73
2017-11-27T02:37:47.424Z,95.83
2017-11-27T02:38:15.458Z,95.83
2017-11-27T02:38:43.408Z,95.93
2017-11-27T02:39:11.431Z,95.73
2017-11-27T02:39:39.383Z,95.73
2017-11-27T02:40:07.524Z,96.02
2017-11-27T02:40:35.577Z,95.83
2017-11-27T02:41:03.630Z,95.64
2017-11-27T02:41:31.786Z,95.93
2017-11-27T02:41:59.844Z,96.02
2017-11-27T02:42:27.971Z,95.34
2017-11-27T02:42:56.142Z,95.93
2017-11-27T02:43:24.285Z,95.73
2017-11-27T02:43:52.365Z,96.12
2017-11-27T02:44:20.564Z,95.25
2017-11-27T02:44:48.734Z,95.44
2017-11-27T02:45:16.803Z,95.15
2017-11-27T02:45:45.078Z,94.67
2017-11-27T02:46:13.098Z,94.67
2017-11-27T02:46:41.172Z,95.06
2017-11-27T02:47:09.212Z,94.67
2017-11-27T02:47:37.239Z,94.09
2017-11-27T02:48:05.397Z,94.67
2017-11-27T02:48:33.914Z,94.38
2017-11-27T02:49:02.008Z,94.57
2017-11-27T02:49:30.243Z,94.57
2017-11-27T02:49:58.387Z,94.28
2017-11-27T02:50:26.537Z,94.28
2017-11-27T02:50:54.510Z,94.57
2017-11-27T02:51:22.553Z,94.67
2017-11-27T02:51:50.509Z,94.76
2017-11-27T02:52:18.399Z,94.57
2017-11-27T02:52:46.563Z,94.57
2017-11-27T02:53:15.251Z,94.09
2017-11-27T02:53:43.258Z,94.28
2017-11-27T02:54:11.228Z,94.28
2017-11-27T02:54:39.708Z,93.8
2017-11-27T02:55:07.664Z,94.28
2017-11-27T02:55:35.723Z,93.99
2017-11-27T02:56:03.853Z,93.94
2017-11-27T02:56:31.925Z,94.38
2017-11-27T02:57:00.430Z,94.67
2017-11-27T02:57:28.557Z,94.23
2017-11-27T02:57:56.717Z,93.85
2017-11-27T02:58:25.201Z,93.9
2017-11-27T02:58:53.251Z,94.23
2017-11-27T02:59:21.429Z,94.18
2017-11-27T02:59:49.562Z,94.81
2017-11-27T03:00:17.716Z,94.76
2017-11-27T03:00:45.872Z,94.23
2017-11-27T03:01:13.889Z,93.99
2017-11-27T03:01:42.052Z,93.85
2017-11-27T03:02:10.198Z,93.6
2017-11-27T03:02:38.342Z,93.46
2017-11-27T03:03:06.443Z,93.55
2017-11-27T03:03:34.590Z,93.85
2017-11-27T03:04:02.555Z,93.65
2017-11-27T03:04:30.709Z,93.6
2017-11-27T03:04:58.750Z,94.23
2017-11-27T03:05:26.883Z,93.55
2017-11-27T03:05:55.031Z,94.04
2017-11-27T03:06:23.082Z,94.13
2017-11-27T03:06:51.223Z,93.94
2017-11-27T03:07:19.383Z,93.94
2017-11-27T03:07:47.556Z,94.13
2017-11-27T03:08:15.705Z,93.65
2017-11-27T03:08:43.823Z,93.55
2017-11-27T03:09:12.088Z,93.65
2017-11-27T03:09:40.076Z,93.55
2017-11-27T03:10:08.131Z,93.55
2017-11-27T03:10:36.264Z,93.36
2017-11-27T03:11:04.305Z,93.55
2017-11-27T03:11:32.468Z,93.55
2017-11-27T03:12:00.448Z,93.65
2017-11-27T03:12:28.577Z,93.36
2017-11-27T03:12:56.623Z,93.55
2017-11-27T03:13:24.756Z,93.46
2017-11-27T03:13:52.896Z,93.55
2017-11-27T03:14:21.047Z,93.65
2017-11-27T03:14:49.185Z,93.55
2017-11-27T03:15:17.028Z,93.55
2017-11-27T03:15:44.985Z,93.36
2017-11-27T03:16:13.138Z,93.75
2017-11-27T03:16:41.178Z,93.46
2017-11-27T03:17:09.340Z,94.13
2017-11-27T03:17:37.661Z,93.65
2017-11-27T03:18:05.601Z,93.85
2017-11-27T03:18:33.629Z,94.23
2017-11-27T03:19:01.655Z,94.43
2017-11-27T03:19:29.729Z,94.33
2017-11-27T03:19:58.208Z,93.94
2017-11-27T03:20:26.164Z,94.23
2017-11-27T03:20:54.309Z,94.23
2017-11-27T03:21:22.268Z,94.13
2017-11-27T03:21:50.389Z,94.23
2017-11-27T03:22:18.453Z,94.81
2017-11-27T03:22:46.598Z,94.71
2017-11-27T03:23:14.554Z,94.33
2017-11-27T03:23:42.601Z,94.33
2017-11-27T03:24:10.653Z,93.75
2017-11-27T03:24:38.731Z,94.62
2017-11-27T03:25:07.048Z,94.52
2017-11-27T03:25:35.215Z,95.01
2017-11-27T03:26:03.360Z,94.71
2017-11-27T03:26:31.619Z,94.62
2017-11-27T03:26:59.672Z,94.33
2017-11-27T03:27:27.842Z,94.23
2017-11-27T03:27:55.933Z,94.62
2017-11-27T03:28:24.102Z,94.71
2017-11-27T03:28:52.236Z,94.91
2017-11-27T03:29:20.426Z,94.91
2017-11-27T03:29:48.629Z,94.81
2017-11-27T03:30:16.844Z,94.96
2017-11-27T03:30:44.987Z,95.44
2017-11-27T03:31:13.183Z,95.06
2017-11-27T03:31:41.151Z,94.96
2017-11-27T03:32:09.220Z,95.01
2017-11-27T03:32:37.306Z,94.96
2017-11-27T03:33:05.438Z,95.15
2017-11-27T03:33:33.535Z,95.49
2017-11-27T03:34:01.541Z,95.34
2017-11-27T03:34:29.620Z,95.25
2017-11-27T03:34:57.889Z,95.34
2017-11-27T03:35:25.917Z,95.34
2017-11-27T03:35:53.968Z,95.44
2017-11-27T03:36:22.193Z,95.15
2017-11-27T03:36:50.385Z,95.34
2017-11-27T03:37:18.591Z,95.34
2017-11-27T03:37:46.750Z,95.64
2017-11-27T03:38:14.913Z,95.83
2017-11-27T03:38:43.140Z,95.83
2017-11-27T03:39:11.312Z,96.02
2017-11-27T03:39:39.470Z,95.83
2017-11-27T03:40:07.524Z,95.73
2017-11-27T03:40:35.602Z,95.93
2017-11-27T03:41:03.781Z,96.12
2017-11-27T03:41:32.135Z,95.83
2017-11-27T03:42:00.201Z,95.83
2017-11-27T03:42:28.350Z,96.02
2017-11-27T03:42:56.408Z,96.02
2017-11-27T03:43:24.529Z,95.93
2017-11-27T03:43:52.626Z,95.73
2017-11-27T03:44:20.745Z,95.93
2017-11-27T03:44:48.701Z,95.83
2017-11-27T03:45:16.941Z,95.54
2017-11-27T03:45:45.184Z,95.93
2017-11-27T03:46:13.512Z,95.83
2017-11-27T03:46:41.538Z,96.02
2017-11-27T03:47:09.598Z,96.31
2017-11-27T03:47:37.758Z,96.12
2017-11-27T03:48:05.668Z,96.12
2017-11-27T03:48:33.801Z,96.6
2017-11-27T03:49:01.873Z,96.31
2017-11-27T03:49:30.026Z,96.51
2017-11-27T03:49:58.178Z,96.41
2017-11-27T03:50:26.729Z,96.89
2017-11-27T03:50:54.842Z,97.09
2017-11-27T03:51:22.940Z,97.28
2017-11-27T03:51:51.128Z,97.28
2017-11-27T03:52:19.158Z,97.96
2017-11-27T03:52:47.326Z,97.42
2017-11-27T03:53:15.404Z,97.52
2017-11-27T03:53:43.332Z,97.47
2017-11-27T03:54:11.523Z,97.42
2017-11-27T03:54:39.558Z,97.91
2017-11-27T03:55:07.531Z,98.2
2017-11-27T03:55:35.752Z,98.1
2017-11-27T03:56:04.000Z,97.81
2017-11-27T03:56:31.857Z,98.49
2017-11-27T03:57:00.009Z,97.91
2017-11-27T03:57:28.098Z,98
2017-11-27T03:57:56.040Z,98.3
2017-11-27T03:58:24.320Z,98.58
2017-11-27T03:58:52.491Z,97.62
2017-11-27T03:59:20.640Z,98.2
2017-11-27T03:59:48.745Z,98
2017-11-27T04:00:16.926Z,97.91
2017-11-27T04:00:45.090Z,97.72
2017-11-27T04:01:13.260Z,98.68
2017-11-27T04:01:41.329Z,98.49
2017-11-27T04:02:09.476Z,98.49
2017-11-27T04:02:37.553Z,98.3
2017-11-27T04:03:05.627Z,98.2
2017-11-27T04:03:33.987Z,98
2017-11-27T04:04:02.137Z,97.72
2017-11-27T04:04:30.245Z,98.2
2017-11-27T04:04:58.514Z,98.49
2017-11-27T04:05:26.754Z,98.2
2017-11-27T04:05:54.892Z,98.97
2017-11-27T04:06:23.063Z,98.58
2017-11-27T04:06:51.037Z,98.58
2017-11-27T04:07:19.212Z,98.97
2017-11-27T04:07:48.026Z,98.78
2017-11-27T04:08:16.266Z,98.68
2017-11-27T04:08:44.375Z,99.16
2017-11-27T04:09:12.309Z,99.16
2017-11-27T04:09:40.448Z,99.26
2017-11-27T04:10:08.648Z,99.55
2017-11-27T04:10:36.903Z,98.97
2017-11-27T04:11:04.967Z,99.11
2017-11-27T04:11:33.052Z,99.26
2017-11-27T04:12:01.110Z,99.02
2017-11-27T04:12:29.255Z,99.21
2017-11-27T04:12:57.399Z,99.69
2017-11-27T04:13:25.544Z,99.26
2017-11-27T04:13:53.616Z,99.65
2017-11-27T04:14:21.805Z,99.69
2017-11-27T04:14:50.007Z,99.31
2017-11-27T04:15:18.128Z,99.89
2017-11-27T04:15:46.339Z,99.99
2017-11-27T04:16:14.508Z,99.99
2017-11-27T04:16:42.648Z,99.31
2017-11-27T04:17:10.827Z,99.46
2017-11-27T04:17:38.911Z,99.31
2017-11-27T04:18:07.044Z,99.79
2017-11-27T04:18:34.947Z,99.99
2017-11-27T04:19:02.978Z,99.79
2017-11-27T04:19:31.123Z,99.11
2017-11-27T04:19:59.254Z,99.31
2017-11-27T04:20:27.715Z,99.89
2017-11-27T04:20:55.653Z,99.31
2017-11-27T04:21:23.793Z,99.99
2017-11-27T04:21:52.002Z,99.99
2017-11-27T04:22:20.179Z,99.99
2017-11-27T04:22:48.336Z,99.99
2017-11-27T04:23:16.512Z,99.99
2017-11-27T04:23:44.471Z,99.99
2017-11-27T04:24:12.400Z,99.99
2017-11-27T04:24:40.552Z,99.99
2017-11-27T04:25:08.792Z,99.99
2017-11-27T04:25:36.863Z,99.99
2017-11-27T04:26:04.875Z,99.99
2017-11-27T04:26:33.207Z,99.99
2017-11-27T04:27:01.361Z,99.99
2017-11-27T04:27:29.434Z,99.69
2017-11-27T04:27:57.598Z,99.99
2017-11-27T04:28:25.581Z,99.99
2017-11-27T04:28:53.829Z,99.99
2017-11-27T04:29:21.945Z,99.99
2017-11-27T04:29:49.903Z,99.99
2017-11-27T04:30:18.057Z,99.99
2017-11-27T04:30:46.168Z,99.99
2017-11-27T04:31:14.305Z,99.99
2017-11-27T04:31:42.502Z,99.79
2017-11-27T04:32:11.471Z,99.99
2017-11-27T04:32:39.553Z,99.89
2017-11-27T04:33:07.683Z,99.99
2017-11-27T04:33:35.834Z,99.99
2017-11-27T04:34:04.000Z,99.99
2017-11-27T04:34:32.064Z,99.99
2017-11-27T04:35:00.028Z,99.99
2017-11-27T04:35:28.211Z,99.99
2017-11-27T04:35:56.451Z,99.99
2017-11-27T04:36:24.630Z,99.99
2017-11-27T04:36:52.804Z,99.89
2017-11-27T04:37:20.555Z,99.99
2017-11-27T04:37:48.515Z,99.69
2017-11-27T04:38:16.702Z,99.69
2017-11-27T04:38:44.838Z,99.31
2017-11-27T04:39:12.913Z,99.99
2017-11-27T04:39:40.936Z,99.99
2017-11-27T04:40:09.003Z,99.31
2017-11-27T04:40:37.142Z,99.79
2017-11-27T04:41:05.279Z,99.21
2017-11-27T04:41:33.433Z,99.6
2017-11-27T04:42:01.395Z,99.21
2017-11-27T04:42:29.401Z,99.41
2017-11-27T04:42:57.608Z,99.11
2017-11-27T04:43:25.718Z,99.6
2017-11-27T04:43:53.866Z,99.11
2017-11-27T04:44:21.965Z,99.6
2017-11-27T04:44:50.033Z,99.69
2017-11-27T04:45:18.197Z,99.99
2017-11-27T04:45:46.380Z,99.21
2017-11-27T04:46:14.529Z,99.99
2017-11-27T04:46:42.589Z,99.21
2017-11-27T04:47:10.851Z,99.5
2017-11-27T04:47:38.776Z,99.02
2017-11-27T04:48:06.902Z,99.6
2017-11-27T04:48:34.919Z,99.99
2017-11-27T04:49:02.841Z,99.99
2017-11-27T04:49:30.982Z,99.99
2017-11-27T04:49:58.951Z,99.99
2017-11-27T04:50:27.027Z,99.99
2017-11-27T04:50:55.347Z,99.99
2017-11-27T04:51:23.467Z,99.79
2017-11-27T04:51:51.439Z,99.99
2017-11-27T04:52:19.560Z,99.99
2017-11-27T04:52:47.727Z,99.99
2017-11-27T04:53:15.964Z,99.99
2017-11-27T04:53:44.030Z,99.99
2017-11-27T04:54:12.254Z,99.99
2017-11-27T04:54:40.456Z,99.99
2017-11-27T04:55:08.513Z,99.99
2017-11-27T04:55:36.635Z,99.99
2017-11-27T04:56:04.814Z,99.99
2017-11-27T04:56:32.955Z,99.99
2017-11-27T04:57:00.921Z,99.99
2017-11-27T04:57:29.053Z,99.99
2017-11-27T04:57:57.214Z,99.99
2017-11-27T04:58:25.386Z,99.99
2017-11-27T04:58:53.560Z,99.99
2017-11-27T04:59:21.658Z,99.99
2017-11-27T04:59:49.705Z,99.99
2017-11-27T05:00:17.889Z,99.99
2017-11-27T05:00:46.061Z,99.99
2017-11-27T05:01:14.309Z,99.99
2017-11-27T05:01:42.372Z,99.99
2017-11-27T05:02:10.601Z,99.99
2017-11-27T05:02:38.764Z,99.99
2017-11-27T05:03:06.749Z,99.99
2017-11-27T05:03:34.769Z,99.99
2017-11-27T05:04:02.960Z,99.99
2017-11-27T05:04:31.081Z,99.99
2017-11-27T05:04:59.281Z,99.99
2017-11-27T05:05:27.120Z,99.99
2017-11-27T05:05:55.392Z,99.99
2017-11-27T05:06:23.405Z,99.99
2017-11-27T05:06:51.527Z,99.99
2017-11-27T05:07:19.682Z,99.99
2017-11-27T05:07:47.733Z,99.99
2017-11-27T05:08:15.767Z,99.99
2017-11-27T05:08:43.707Z,99.99
2017-11-27T05:09:11.861Z,99.99
2017-11-27T05:09:39.895Z,99.99
2017-11-27T05:10:07.942Z,99.99
2017-11-27T05:10:35.900Z,99.99
2017-11-27T05:11:04.131Z,99.99
2017-11-27T05:11:32.540Z,99.99
2017-11-27T05:12:00.533Z,99.99
2017-11-27T05:12:28.696Z,99.99
2017-11-27T05:12:56.850Z,99.99
2017-11-27T05:13:25.077Z,99.99
2017-11-27T05:13:53.145Z,99.99
2017-11-27T05:14:21.305Z,99.99
2017-11-27T05:14:49.297Z,99.99
2017-11-27T05:15:17.494Z,99.99
2017-11-27T05:15:45.638Z,99.99
2017-11-27T05:16:13.820Z,99.99
2017-11-27T05:16:42.021Z,99.99
2017-11-27T05:17:10.109Z,99.99
2017-11-27T05:17:38.282Z,99.99
2017-11-27T05:18:06.260Z,99.99
2017-11-27T05:18:34.390Z,99.99
2017-11-27T05:19:02.533Z,99.99
2017-11-27T05:19:30.744Z,99.99
2017-11-27T05:19:58.822Z,99.99
2017-11-27T05:20:26.908Z,99.99
2017-11-27T05:20:54.857Z,99.99
2017-11-27T05:21:23.396Z,99.99
2017-11-27T05:21:51.543Z,99.99
2017-11-27T05:22:19.583Z,99.99
2017-11-27T05:22:47.642Z,99.99
2017-11-27T05:23:15.842Z,99.99
2017-11-27T05:23:43.940Z,99.99
2017-11-27T05:24:12.112Z,99.99
2017-11-27T05:24:40.337Z,99.99
2017-11-27T05:25:08.302Z,99.99
2017-11-27T05:25:36.347Z,99.99
2017-11-27T05:26:04.481Z,99.99
2017-11-27T05:26:32.422Z,99.99
2017-11-27T05:27:00.564Z,99.99
2017-11-27T05:27:28.577Z,99.99
2017-11-27T05:27:56.740Z,99.99
2017-11-27T05:28:24.910Z,99.99
2017-11-27T05:28:53.014Z,99.99
2017-11-27T05:29:21.053Z,99.99
2017-11-27T05:29:49.129Z,99.99
2017-11-27T05:30:17.282Z,99.99
2017-11-27T05:30:45.438Z,99.99
2017-11-27T05:31:13.497Z,99.99
2017-11-27T05:31:41.668Z,99.99
2017-11-27T05:32:09.806Z,99.99
2017-11-27T05:32:37.866Z,99.99
2017-11-27T05:33:05.794Z,99.99
2017-11-27T05:33:33.922Z,99.99
2017-11-27T05:34:01.805Z,99.99
2017-11-27T05:34:29.653Z,99.99
2017-11-27T05:34:57.782Z,99.99
2017-11-27T05:35:25.844Z,99.99
2017-11-27T05:35:53.972Z,99.99
2017-11-27T05:36:22.129Z,99.99
2017-11-27T05:36:50.113Z,99.99
2017-11-27T05:37:18.010Z,99.99
2017-11-27T05:37:46.198Z,99.99
2017-11-27T05:38:14.314Z,99.99
2017-11-27T05:38:42.307Z,99.99
2017-11-27T05:39:10.491Z,99.99
2017-11-27T05:39:38.645Z,99.99
2017-11-27T05:40:06.713Z,99.99
2017-11-27T05:40:34.849Z,99.99
2017-11-27T05:41:02.993Z,99.99
2017-11-27T05:41:31.011Z,99.99
2017-11-27T05:41:59.151Z,99.99
2017-11-27T05:42:27.113Z,99.99
2017-11-27T05:42:55.230Z,99.99
2017-11-27T05:43:23.411Z,99.99
2017-11-27T05:43:51.576Z,99.99
2017-11-27T05:44:20.519Z,99.99
2017-11-27T05:44:48.591Z,99.99
2017-11-27T05:45:16.721Z,99.99
2017-11-27T05:45:44.689Z,99.99
2017-11-27T05:46:12.735Z,99.99
2017-11-27T05:46:40.788Z,99.99
2017-11-27T05:47:08.848Z,99.99
2017-11-27T05:47:36.996Z,99.99
2017-11-27T05:48:05.167Z,99.99
2017-11-27T05:48:33.109Z,99.99
2017-11-27T05:49:01.332Z,99.99
2017-11-27T05:49:29.523Z,99.99
2017-11-27T05:49:57.501Z,99.99
2017-11-27T05:50:25.722Z,99.99
2017-11-27T05:50:53.749Z,99.99
2017-11-27T05:51:21.894Z,99.99
2017-11-27T05:51:50.037Z,99.99
2017-11-27T05:52:18.195Z,99.99
2017-11-27T05:52:46.255Z,99.99
2017-11-27T05:53:14.384Z,99.99
2017-11-27T05:53:42.513Z,99.99
2017-11-27T05:54:10.663Z,99.99
2017-11-27T05:54:38.709Z,99.99
2017-11-27T05:55:06.963Z,99.99
2017-11-27T05:55:35.029Z,99.99
2017-11-27T05:56:03.208Z,99.99
2017-11-27T05:56:31.457Z,99.99
2017-11-27T05:56:59.628Z,99.99
2017-11-27T05:57:27.829Z,99.99
2017-11-27T05:57:55.884Z,99.99
2017-11-27T05:58:23.924Z,99.99
2017-11-27T05:58:52.084Z,99.99
2017-11-27T05:59:20.239Z,99.99
2017-11-27T05:59:48.315Z,99.99
2017-11-27T06:00:16.383Z,99.99
2017-11-27T06:00:44.509Z,99.99
2017-11-27T06:01:12.675Z,99.99
2017-11-27T06:01:40.841Z,99.99
2017-11-27T06:02:08.882Z,99.99
2017-11-27T06:02:37.081Z,99.99
2017-11-27T06:03:05.149Z,99.99
2017-11-27T06:03:33.356Z,99.99
2017-11-27T06:04:01.475Z,99.99
2017-11-27T06:04:29.670Z,99.99